createdAt,value
2022-12-08T00:46:12.098Z,4.18
2022-12-08T00:48:40.836Z,4.85
2022-12-08T00:51:09.447Z,3.80
2022-12-08T00:53:37.728Z,4.13
2022-12-08T00:56:06.720Z,4.18
2022-12-08T00:58:35.017Z,3.95
2022-12-08T01:46:08.842Z,3.42
2022-12-08T01:48:37.477Z,3.72
2022-12-08T01:51:06.850Z,3.65
2022-12-08T01:53:35.781Z,3.08
2022-12-08T01:56:10.688Z,3.13
2022-12-08T01:58:44.877Z,3.97
2022-12-08T02:45:13.254Z,3.35
2022-12-08T02:47:43.568Z,3.53
2022-12-08T02:50:13.472Z,3.05
2022-12-08T02:52:47.046Z,2.20
2022-12-08T02:55:25.511Z,3.33
2022-12-08T02:58:21.036Z,2.08
2022-12-08T03:46:41.916Z,2.63
2022-12-08T03:49:13.648Z,2.10
2022-12-08T03:51:42.276Z,3.13
2022-12-08T03:54:10.583Z,2.10
2022-12-08T03:56:41.082Z,2.67
2022-12-08T03:59:10.069Z,2.70
2022-12-08T04:45:41.632Z,2.63
2022-12-08T04:48:12.599Z,1.95
2022-12-08T04:50:42.835Z,2.78
2022-12-08T04:53:12.827Z,2.72
2022-12-08T04:55:43.679Z,1.75
2022-12-08T04:58:14.856Z,2.03
2022-12-08T05:30:10.329Z,2.80
2022-12-08T05:32:40.100Z,1.75
2022-12-08T05:35:09.696Z,2.63
2022-12-08T05:37:38.024Z,2.65
2022-12-08T05:40:08.344Z,1.83
2022-12-08T05:42:36.790Z,1.67
2022-12-08T05:45:06.456Z,2.38
2022-12-08T05:47:36.322Z,2.35
2022-12-08T05:50:08.553Z,1.67
2022-12-08T05:52:36.910Z,1.40
2022-12-08T05:55:05.711Z,2.67
2022-12-08T05:57:34.067Z,1.63
2022-12-08T06:00:02.933Z,1.92
2022-12-08T06:02:40.225Z,1.60
2022-12-08T06:05:10.685Z,2.22
2022-12-08T06:07:39.098Z,1.70
2022-12-08T06:10:09.422Z,2.47
2022-12-08T06:12:37.745Z,2.42
2022-12-08T06:15:07.253Z,1.50
2022-12-08T06:17:35.943Z,2.10
2022-12-08T06:20:05.384Z,1.60
2022-12-08T06:22:35.747Z,1.55
2022-12-08T06:25:07.289Z,1.60
2022-12-08T06:27:38.108Z,1.75
2022-12-08T06:30:08.561Z,2.60
2022-12-08T06:32:37.850Z,1.70
2022-12-08T06:35:08.244Z,2.92
2022-12-08T06:37:38.443Z,2.28
2022-12-08T06:40:08.945Z,2.05
2022-12-08T06:42:47.107Z,3.25
2022-12-08T06:45:17.509Z,1.92
2022-12-08T06:47:46.114Z,3.03
2022-12-08T06:50:15.491Z,5.20
2022-12-08T06:52:55.937Z,3.60
2022-12-08T06:58:21.435Z,3.55
2022-12-08T07:00:49.870Z,4.05
2022-12-08T07:03:18.466Z,2.45
2022-12-08T07:05:46.917Z,5.43
2022-12-08T07:08:16.900Z,3.70
2022-12-08T07:10:45.385Z,5.50
2022-12-08T07:13:16.524Z,3.72
2022-12-08T07:15:44.932Z,4.13
2022-12-08T07:18:13.495Z,2.55
2022-12-08T07:20:41.921Z,3.75
2022-12-08T07:23:10.800Z,6.78
2022-12-08T07:25:40.517Z,3.25
2022-12-08T07:28:12.517Z,5.50
2022-12-08T07:30:41.015Z,3.63
2022-12-08T07:33:09.410Z,4.22
2022-12-08T07:35:37.786Z,3.50
2022-12-08T07:38:06.248Z,4.65
2022-12-08T07:40:34.904Z,3.03
2022-12-08T07:43:04.908Z,3.40
2022-12-08T07:45:33.220Z,2.72
2022-12-08T07:48:01.535Z,3.45
2022-12-08T07:50:30.097Z,3.92
2022-12-08T07:52:58.764Z,2.60
2022-12-08T07:55:27.831Z,2.30
2022-12-08T07:57:56.355Z,3.90
2022-12-08T08:00:26.688Z,3.08
2022-12-08T08:02:55.062Z,2.88
2022-12-08T08:05:24.462Z,2.30
2022-12-08T08:07:52.934Z,2.08
2022-12-08T08:10:21.515Z,2.47
2022-12-08T08:12:50.542Z,2.47
2022-12-08T08:15:21.065Z,1.70
2022-12-08T08:17:53.149Z,3.08
2022-12-08T08:20:22.812Z,3.20
2022-12-08T08:22:52.465Z,2.08
2022-12-08T08:25:23.383Z,2.80
2022-12-08T08:27:52.075Z,3.08
2022-12-08T08:30:21.315Z,2.33
2022-12-08T08:32:52.406Z,2.38
2022-12-08T08:35:21.441Z,1.80
2022-12-08T08:37:50.726Z,2.97
2022-12-08T08:40:19.707Z,2.30
2022-12-08T08:42:50.323Z,1.48
2022-12-08T08:45:20.665Z,2.35
2022-12-08T08:47:49.308Z,2.55
2022-12-08T08:50:19.019Z,1.63
2022-12-08T08:52:48.241Z,2.10
2022-12-08T08:55:16.836Z,2.42
2022-12-08T08:57:48.054Z,1.40
2022-12-08T09:00:17.835Z,2.08
2022-12-08T09:02:47.026Z,1.48
2022-12-08T09:05:18.130Z,2.83
2022-12-08T09:07:46.814Z,1.90
2022-12-08T09:10:16.048Z,4.10
2022-12-08T09:12:47.044Z,2.38
2022-12-08T09:15:17.142Z,4.07
2022-12-08T09:17:45.378Z,3.95
2022-12-08T09:20:14.782Z,7.50
2022-12-08T09:22:44.767Z,2.35
2022-12-08T09:25:20.967Z,1.20
2022-12-08T09:27:52.173Z,2.33
2022-12-08T09:30:21.338Z,6.38
2022-12-08T09:32:50.782Z,4.57
2022-12-08T09:35:19.906Z,2.58
2022-12-08T09:37:50.987Z,2.58
2022-12-08T09:40:24.737Z,1.90
2022-12-08T09:42:57.136Z,5.18
2022-12-08T09:45:31.244Z,3.92
2022-12-08T09:48:06.334Z,3.30
2022-12-08T09:50:41.187Z,2.60
2022-12-08T09:53:23.941Z,3.90
2022-12-08T09:55:57.535Z,2.50
2022-12-08T09:58:36.469Z,1.90
2022-12-08T10:01:06.347Z,1.73
2022-12-08T10:03:36.302Z,1.90
2022-12-08T10:06:15.487Z,1.83
2022-12-08T10:08:56.061Z,2.63
2022-12-08T10:11:37.473Z,2.17
2022-12-08T10:14:20.209Z,1.55
2022-12-08T10:16:51.368Z,1.88
2022-12-08T10:19:24.713Z,1.35
2022-12-08T10:22:01.578Z,1.95
2022-12-08T10:24:47.498Z,2.65
2022-12-08T10:27:16.181Z,1.83
2022-12-08T10:29:49.949Z,1.75
2022-12-08T10:32:23.693Z,1.67
2022-12-08T10:35:05.729Z,1.73
2022-12-08T10:37:34.372Z,2.42
2022-12-08T10:40:10.923Z,2.38
2022-12-08T10:42:44.055Z,2.47
2022-12-08T10:45:30.211Z,1.60
2022-12-08T10:48:02.749Z,2.17
2022-12-08T10:50:36.939Z,3.83
2022-12-08T10:53:22.082Z,2.28
2022-12-08T10:56:07.345Z,1.98
2022-12-08T10:58:40.849Z,1.50
2022-12-08T11:01:19.265Z,2.40
2022-12-08T11:03:52.222Z,2.05
2022-12-08T11:06:26.758Z,1.98
2022-12-08T11:08:58.286Z,2.90
2022-12-08T11:11:46.282Z,2.35
2022-12-08T11:14:23.422Z,2.38
2022-12-08T11:16:56.605Z,1.88
2022-12-08T11:19:28.850Z,1.58
2022-12-08T11:22:00.749Z,2.47
2022-12-08T11:24:37.781Z,1.95
2022-12-08T11:27:10.415Z,2.00
2022-12-08T11:29:40.716Z,1.88
2022-12-08T11:32:14.779Z,1.88
2022-12-08T11:34:47.573Z,2.33
2022-12-08T11:37:23.910Z,1.50
2022-12-08T11:39:57.426Z,3.45
2022-12-08T11:42:34.093Z,1.73
2022-12-08T11:45:08.531Z,4.05
2022-12-08T11:47:44.027Z,1.85
2022-12-08T11:50:23.006Z,1.88
2022-12-08T11:52:52.929Z,2.17
2022-12-08T11:55:37.106Z,2.78
2022-12-08T11:58:19.110Z,1.67
2022-12-08T12:00:47.831Z,2.28
2022-12-08T12:03:28.604Z,2.60
2022-12-08T12:06:46.477Z,2.20
2022-12-08T12:09:18.810Z,2.60
2022-12-08T12:12:15.997Z,1.92
2022-12-08T12:15:23.055Z,3.25
2022-12-08T12:17:55.759Z,3.70
2022-12-08T12:20:30.832Z,3.08
2022-12-08T12:23:06.001Z,2.55
2022-12-08T12:25:36.865Z,2.35
2022-12-08T12:28:08.985Z,5.03
2022-12-08T12:30:59.512Z,3.20
2022-12-08T12:33:28.886Z,1.52
2022-12-08T12:35:58.607Z,1.83
2022-12-08T12:38:49.786Z,1.67
2022-12-08T12:41:26.402Z,3.83
2022-12-08T12:44:25.986Z,1.80
2022-12-08T12:47:00.680Z,2.33
2022-12-08T12:50:05.736Z,1.35
2022-12-08T12:52:43.583Z,1.75
2022-12-08T12:55:54.523Z,2.90
2022-12-08T12:58:42.791Z,2.25
2022-12-08T13:01:55.321Z,2.92
2022-12-08T13:04:35.141Z,1.35
2022-12-08T13:07:04.233Z,1.90
2022-12-08T13:09:37.495Z,1.05
2022-12-08T13:12:12.432Z,1.88
2022-12-08T13:14:48.580Z,2.28
2022-12-08T13:17:28.295Z,3.15
2022-12-08T13:20:01.379Z,1.75
2022-12-08T13:23:04.922Z,1.40
2022-12-08T13:26:15.435Z,1.85
2022-12-08T13:29:18.779Z,2.60
2022-12-08T13:31:51.345Z,1.35
2022-12-08T13:34:41.287Z,1.42
2022-12-08T13:37:26.814Z,1.98
2022-12-08T13:40:00.285Z,1.35
2022-12-08T13:42:42.278Z,1.30
2022-12-08T13:45:39.793Z,1.60
2022-12-08T13:48:42.330Z,2.10
2022-12-08T13:57:10.158Z,2.10
2022-12-08T13:59:46.371Z,1.42
2022-12-08T14:02:23.976Z,1.45
2022-12-08T14:05:17.553Z,3.00
2022-12-08T14:07:43.325Z,2.72
2022-12-08T14:10:20.600Z,1.40
2022-12-08T14:12:57.073Z,1.95
2022-12-08T14:15:30.230Z,3.17
2022-12-08T14:18:02.662Z,3.75
2022-12-08T14:20:46.529Z,3.67
2022-12-08T14:23:22.002Z,2.38
2022-12-08T14:25:52.786Z,2.65
2022-12-08T14:28:23.281Z,3.47
2022-12-08T14:30:56.240Z,2.40
2022-12-08T14:33:24.912Z,1.55
2022-12-08T14:35:56.671Z,3.15
2022-12-08T14:38:27.124Z,2.33
2022-12-08T14:41:08.913Z,2.55
2022-12-08T14:43:37.422Z,2.95
2022-12-08T14:46:20.712Z,2.45
2022-12-08T14:48:49.540Z,3.13
2022-12-08T14:51:28.179Z,1.90
2022-12-08T14:53:59.803Z,1.67
2022-12-08T14:56:35.176Z,2.55
2022-12-08T14:59:13.818Z,1.60
2022-12-08T15:01:43.367Z,1.80
2022-12-08T15:04:20.909Z,2.53
2022-12-08T15:06:54.357Z,1.65
2022-12-08T15:09:33.720Z,3.33
2022-12-08T15:12:06.234Z,2.67
2022-12-08T15:14:37.367Z,3.40
2022-12-08T15:17:31.109Z,2.00
2022-12-08T15:20:01.407Z,2.28
2022-12-08T15:22:34.954Z,3.05
2022-12-08T15:25:03.823Z,5.43
2022-12-08T15:27:43.767Z,2.30
2022-12-08T15:30:20.311Z,2.30
2022-12-08T15:32:52.266Z,1.70
2022-12-08T15:35:22.513Z,2.03
2022-12-08T15:37:52.612Z,1.80
2022-12-08T15:40:25.961Z,1.52
2022-12-08T15:43:10.675Z,3.03
2022-12-08T15:45:53.403Z,1.92
2022-12-08T15:48:31.228Z,1.65
2022-12-08T15:51:03.214Z,1.33
2022-12-08T15:53:38.922Z,1.65
2022-12-08T15:59:00.085Z,1.52
2022-12-08T16:01:28.774Z,3.30
2022-12-08T16:04:36.875Z,2.70
2022-12-08T16:07:20.709Z,2.33
2022-12-08T16:09:41.700Z,4.28
2022-12-08T16:13:26.692Z,2.72
2022-12-08T16:18:23.921Z,9.40
2022-12-08T16:23:46.008Z,17.88
2022-12-08T16:26:35.537Z,21.27
2022-12-08T16:29:06.474Z,33.60
2022-12-08T16:31:41.983Z,24.88
2022-12-08T16:34:11.823Z,18.08
2022-12-08T16:36:42.689Z,17.42
2022-12-08T16:39:14.218Z,14.27
2022-12-08T16:42:11.493Z,14.57
2022-12-08T16:44:42.728Z,18.00
2022-12-08T16:47:12.978Z,16.27
2022-12-08T16:49:41.816Z,12.73
2022-12-08T16:52:11.790Z,13.32
2022-12-08T16:54:41.506Z,14.00
2022-12-08T16:57:12.213Z,12.50
2022-12-08T16:59:40.619Z,11.52
2022-12-08T17:02:16.221Z,14.95
2022-12-08T17:04:44.882Z,13.18
2022-12-08T17:07:14.620Z,12.38
2022-12-08T17:09:45.811Z,15.55
2022-12-08T17:12:14.251Z,14.27
2022-12-08T17:14:42.688Z,13.23
2022-12-08T17:17:12.898Z,17.65
2022-12-08T17:19:41.635Z,11.07
2022-12-08T17:22:09.996Z,13.00
2022-12-08T17:24:39.525Z,150.20
2022-12-08T17:27:07.889Z,49.75
2022-12-08T17:29:37.923Z,36.58
2022-12-08T17:32:07.775Z,37.80
2022-12-08T17:34:37.683Z,36.45
2022-12-08T17:37:06.037Z,34.33
2022-12-08T17:39:34.641Z,34.05
2022-12-08T17:42:03.090Z,28.02
2022-12-08T17:44:31.942Z,30.60
2022-12-08T17:47:00.563Z,31.25
2022-12-08T17:49:30.576Z,30.70
2022-12-08T17:52:02.587Z,32.15
2022-12-08T17:54:31.014Z,30.25
2022-12-08T17:57:00.188Z,29.90
2022-12-08T17:59:30.044Z,123.60
2022-12-08T18:01:59.063Z,84.65
2022-12-08T18:04:29.387Z,85.95
2022-12-08T18:07:01.238Z,89.30
2022-12-08T18:09:32.711Z,86.35
2022-12-08T18:12:01.221Z,87.22
2022-12-08T18:14:29.562Z,86.43
2022-12-08T18:16:58.206Z,80.10
2022-12-08T18:19:27.888Z,82.70
2022-12-08T18:21:56.270Z,80.43
2022-12-08T18:24:26.307Z,78.53
2022-12-08T18:26:55.397Z,83.93
2022-12-08T18:29:25.010Z,79.38
2022-12-08T18:31:53.596Z,74.38
2022-12-08T18:34:22.520Z,76.43
2022-12-08T18:36:52.742Z,66.50
2022-12-08T18:39:26.357Z,64.13
2022-12-08T18:41:56.261Z,65.60
2022-12-08T18:44:24.693Z,63.97
2022-12-08T18:46:53.163Z,59.97
2022-12-08T18:49:22.979Z,60.33
2022-12-08T18:51:51.314Z,89.65
2022-12-08T18:54:27.687Z,68.38
2022-12-08T18:57:08.720Z,67.65
2022-12-08T18:59:37.437Z,66.43
2022-12-08T19:02:06.253Z,59.30
2022-12-08T19:04:38.558Z,61.38
2022-12-08T19:07:07.870Z,61.20
2022-12-08T19:09:36.520Z,58.10
2022-12-08T19:12:07.407Z,59.38
2022-12-08T19:14:36.882Z,56.20
2022-12-08T19:17:06.900Z,57.15
2022-12-08T19:19:36.630Z,56.55
2022-12-08T19:22:05.329Z,54.65
2022-12-08T19:24:36.570Z,54.35
2022-12-08T19:27:08.690Z,50.83
2022-12-08T19:29:37.158Z,51.33
2022-12-08T19:32:06.812Z,48.25
2022-12-08T19:34:35.629Z,44.20
2022-12-08T19:37:04.041Z,46.03
2022-12-08T19:39:49.994Z,46.10
2022-12-08T19:42:39.402Z,46.25
2022-12-08T19:45:12.419Z,45.60
2022-12-08T19:47:41.867Z,39.40
2022-12-08T19:50:30.656Z,40.88
2022-12-08T19:52:59.716Z,40.97
2022-12-08T19:55:29.109Z,38.80
2022-12-08T19:57:59.727Z,38.08
2022-12-08T20:00:28.577Z,41.42
2022-12-08T20:02:59.757Z,33.53
2022-12-08T20:05:28.689Z,31.83
2022-12-08T20:07:57.310Z,31.02
2022-12-08T20:10:30.180Z,25.67
2022-12-08T20:13:14.205Z,21.05
2022-12-08T20:15:43.280Z,32.83
2022-12-08T20:18:12.654Z,27.77
2022-12-08T20:20:41.721Z,33.10
2022-12-08T20:23:10.585Z,30.15
2022-12-08T20:25:39.949Z,32.50
2022-12-08T20:28:10.198Z,33.40
2022-12-08T20:30:40.163Z,28.77
2022-12-08T20:33:08.956Z,34.05
2022-12-08T20:35:37.535Z,26.05
2022-12-08T20:38:05.875Z,26.30
2022-12-08T20:40:34.597Z,26.15
2022-12-08T20:43:03.097Z,21.38
2022-12-08T20:45:32.776Z,22.70
2022-12-08T20:48:01.318Z,23.27
2022-12-08T20:50:30.081Z,22.65
2022-12-08T20:52:58.799Z,19.05
2022-12-08T20:55:27.528Z,19.73
2022-12-08T20:57:56.014Z,18.10
2022-12-08T21:00:27.257Z,21.70
2022-12-08T21:02:57.646Z,17.38
2022-12-08T21:05:26.376Z,20.77
2022-12-08T21:07:55.132Z,18.73
2022-12-08T21:10:24.335Z,16.63
2022-12-08T21:12:52.935Z,18.50
2022-12-08T21:15:21.636Z,17.60
2022-12-08T21:17:50.296Z,18.45
2022-12-08T21:20:20.231Z,15.93
2022-12-08T21:22:48.791Z,15.95
2022-12-08T21:25:17.412Z,15.73
2022-12-08T21:27:45.928Z,14.00
2022-12-08T21:30:16.310Z,14.07
2022-12-08T21:32:45.950Z,12.57
2022-12-08T21:35:14.608Z,12.57
2022-12-08T21:37:44.500Z,11.80
2022-12-08T21:40:14.484Z,12.27
2022-12-08T21:42:45.767Z,11.00
2022-12-08T21:45:20.615Z,13.55
2022-12-08T21:47:50.707Z,13.35
2022-12-08T21:50:20.556Z,9.98
2022-12-08T21:52:51.030Z,10.65
2022-12-08T21:55:20.361Z,11.70
2022-12-08T21:57:48.967Z,9.32
2022-12-08T22:00:19.678Z,8.80
2022-12-08T22:02:48.328Z,9.23
2022-12-08T22:05:17.100Z,9.70
2022-12-08T22:07:45.722Z,11.63
2022-12-08T22:10:15.757Z,10.40
2022-12-08T22:12:44.768Z,10.30
2022-12-08T22:15:14.118Z,9.88
2022-12-08T22:17:45.127Z,9.77
2022-12-08T22:20:16.080Z,10.00
2022-12-08T22:22:45.961Z,10.93
2022-12-08T22:25:16.123Z,10.13
2022-12-08T22:27:44.804Z,10.90
2022-12-08T22:30:13.929Z,12.10
2022-12-08T22:32:42.857Z,11.80
2022-12-08T22:57:15.524Z,8.55
2022-12-08T22:59:44.146Z,9.40
2022-12-08T23:02:12.964Z,10.18
2022-12-08T23:04:41.986Z,11.05
2022-12-08T23:07:11.199Z,11.02
2022-12-08T23:09:41.108Z,11.32
2022-12-08T23:12:10.608Z,10.63
2022-12-08T23:14:41.509Z,9.85
2022-12-08T23:46:24.825Z,7.55
2022-12-08T23:48:53.754Z,10.85
2022-12-08T23:51:22.336Z,7.95
2022-12-08T23:53:50.878Z,10.18
2022-12-08T23:56:22.237Z,6.70
2022-12-08T23:58:52.818Z,10.82
